Time;durP1;ratioP1;P1;durP2;ratioP2;P2;SDS_P1;SDS_P2;PMS_P1;PMS_P2;Temp;Humidity;BMP_temperature;BMP_pressure;BME280_temperature;BME280_humidity;BME280_pressure;Samples;Min_cycle;Max_cycle;Signal;HPM_P1;HPM_P2
2022/12/05 00:01:31;;;;;;;15.40;8.20;;;5.40;80.10;;;;;;4991019;28;20379;-59
2022/12/05 00:04:00;;;;;;;15.52;8.23;;;5.30;80.10;;;;;;5002065;28;20017;-58
2022/12/05 00:06:29;;;;;;;17.92;9.57;;;5.40;80.30;;;;;;4990373;28;20027;-59
2022/12/05 00:08:54;;;;;;;15.77;9.70;;;5.30;80.40;;;;;;4990294;28;20027;-59
2022/12/05 00:11:26;;;;;;;12.27;7.65;;;5.30;80.40;;;;;;4991165;28;20042;-59
2022/12/05 00:13:52;;;;;;;17.48;9.65;;;5.40;80.40;;;;;;4992445;28;20516;-59
2022/12/05 00:16:21;;;;;;;16.85;10.23;;;5.30;80.40;;;;;;4992160;28;20436;-64
2022/12/05 00:18:47;;;;;;;17.50;10.35;;;5.30;80.40;;;;;;4991167;28;20100;-64
2022/12/05 00:21:17;;;;;;;17.98;9.20;;;5.30;80.50;;;;;;4991466;28;20030;-64
2022/12/05 00:23:43;;;;;;;22.70;11.13;;;5.40;80.60;;;;;;5006561;28;20027;-63
2022/12/05 00:26:09;;;;;;;17.23;10.48;;;5.40;80.60;;;;;;4975442;28;20045;-62
2022/12/05 00:28:35;;;;;;;18.13;10.05;;;5.40;80.60;;;;;;4993225;28;20551;-63
2022/12/05 00:31:03;;;;;;;16.95;9.90;;;5.40;80.50;;;;;;4986783;28;20047;-63
2022/12/05 00:33:28;;;;;;;17.20;10.75;;;5.40;80.50;;;;;;4994124;28;20519;-59
2022/12/05 00:35:54;;;;;;;17.30;10.60;;;5.40;80.50;;;;;;4992613;28;20026;-59
2022/12/05 00:38:20;;;;;;;13.60;7.70;;;5.40;80.60;;;;;;4991706;28;20076;-58
2022/12/05 00:40:45;;;;;;;18.15;9.70;;;5.40;80.60;;;;;;4990795;28;20026;-58
2022/12/05 00:43:11;;;;;;;20.02;10.52;;;5.40;80.70;;;;;;4994159;28;20082;-58
2022/12/05 00:45:37;;;;;;;11.82;7.03;;;5.40;80.80;;;;;;4993082;28;20029;-59
2022/12/05 00:48:02;;;;;;;16.80;8.95;;;5.40;80.80;;;;;;4987882;28;20023;-59
2022/12/05 00:50:28;;;;;;;11.15;7.72;;;5.40;80.80;;;;;;4993078;28;20567;-59
2022/12/05 00:52:54;;;;;;;20.83;10.07;;;5.40;80.90;;;;;;4990320;28;20474;-59
2022/12/05 00:55:19;;;;;;;16.90;9.90;;;5.40;80.90;;;;;;5022554;28;20105;-63
2022/12/05 00:57:45;;;;;;;16.02;9.07;;;5.40;81.00;;;;;;4993316;28;20045;-60
2022/12/05 01:00:11;;;;;;;15.80;9.00;;;5.40;81.00;;;;;;4990616;28;20038;-60
2022/12/05 01:02:37;;;;;;;16.70;9.73;;;5.40;81.00;;;;;;5020245;28;20037;-59
2022/12/05 01:05:02;;;;;;;14.25;9.60;;;5.40;81.10;;;;;;4990471;28;20101;-58
2022/12/05 01:07:28;;;;;;;17.50;8.25;;;5.40;81.20;;;;;;4982172;28;20038;-58
2022/12/05 01:09:54;;;;;;;14.30;10.05;;;5.40;81.30;;;;;;4995516;28;20054;-60
2022/12/05 01:12:19;;;;;;;16.48;9.63;;;5.40;81.40;;;;;;4990397;28;20036;-64
2022/12/05 01:14:45;;;;;;;16.30;8.45;;;5.40;81.40;;;;;;4985927;28;20152;-63
2022/12/05 01:17:11;;;;;;;21.83;9.52;;;5.40;81.40;;;;;;4990159;28;20038;-63
2022/12/05 01:19:37;;;;;;;10.80;8.43;;;5.40;81.40;;;;;;4991125;28;20094;-64
2022/12/05 01:22:03;;;;;;;16.15;7.63;;;5.40;81.40;;;;;;4984969;28;20170;-63
2022/12/05 01:24:29;;;;;;;13.05;8.52;;;5.40;81.40;;;;;;4991108;28;20046;-63
2022/12/05 01:26:55;;;;;;;13.98;8.48;;;5.40;81.40;;;;;;4989864;28;20106;-62
2022/12/05 01:29:23;;;;;;;16.88;10.07;;;5.40;81.50;;;;;;4993865;28;20030;-65
2022/12/05 01:31:49;;;;;;;18.25;9.82;;;5.40;81.60;;;;;;4990190;28;20389;-62
2022/12/05 01:34:18;;;;;;;17.00;9.48;;;5.40;81.70;;;;;;5001534;28;20432;-64
2022/12/05 01:36:45;;;;;;;22.88;10.05;;;5.40;81.60;;;;;;4991854;28;20034;-63
2022/12/05 01:39:12;;;;;;;14.05;8.68;;;5.50;81.80;;;;;;4994131;28;20033;-63
2022/12/05 01:41:42;;;;;;;12.00;7.40;;;5.50;81.70;;;;;;4994215;28;20050;-63
2022/12/05 01:44:11;;;;;;;19.90;10.15;;;5.50;81.70;;;;;;4996055;28;20030;-64
2022/12/05 01:46:44;;;;;;;15.93;9.05;;;5.50;81.60;;;;;;4997208;28;20072;-63
2022/12/05 01:49:15;;;;;;;12.35;8.25;;;5.50;81.70;;;;;;4997051;28;20468;-63
2022/12/05 01:51:47;;;;;;;13.98;10.02;;;5.50;81.70;;;;;;4993314;28;20381;-59
2022/12/05 01:54:15;;;;;;;22.20;10.27;;;5.50;81.80;;;;;;4993272;28;20045;-64
2022/12/05 01:56:47;;;;;;;12.32;7.88;;;5.50;81.80;;;;;;4987961;28;20068;-59
2022/12/05 01:59:13;;;;;;;14.68;9.68;;;5.50;81.80;;;;;;4999763;28;20026;-60
2022/12/05 02:01:39;;;;;;;17.55;8.88;;;5.50;81.80;;;;;;4991327;28;20505;-60
2022/12/05 02:04:06;;;;;;;12.35;6.72;;;5.60;81.90;;;;;;4995633;28;20025;-58
2022/12/05 02:06:32;;;;;;;12.38;8.75;;;5.50;81.80;;;;;;4993048;28;20031;-62
2022/12/05 02:08:58;;;;;;;17.20;8.65;;;5.60;81.90;;;;;;4993182;28;20084;-63
2022/12/05 02:11:27;;;;;;;15.68;8.70;;;5.60;81.90;;;;;;4992251;28;20051;-63
2022/12/05 02:14:08;;;;;;;13.40;8.13;;;5.60;81.90;;;;;;4993478;28;20402;-62
2022/12/05 02:17:04;;;;;;;11.32;6.72;;;5.60;81.90;;;;;;4994038;28;20112;-63
2022/12/05 02:19:57;;;;;;;13.43;7.72;;;5.60;82.50;;;;;;4999410;28;20066;-64
2022/12/05 02:22:29;;;;;;;11.27;7.43;;;5.60;81.90;;;;;;5024399;28;20112;-64
2022/12/05 02:25:25;;;;;;;15.37;7.87;;;5.60;81.90;;;;;;4996654;28;20031;-63
2022/12/05 02:28:32;;;;;;;11.45;7.75;;;5.60;81.90;;;;;;4991541;28;20066;-64
2022/12/05 02:31:14;;;;;;;14.82;8.10;;;5.60;82.00;;;;;;4997952;28;20031;-63
2022/12/05 02:33:51;;;;;;;10.73;6.97;;;5.60;82.20;;;;;;4993489;28;20022;-64
2022/12/05 02:36:22;;;;;;;12.18;7.13;;;5.60;82.20;;;;;;4991906;28;20058;-64
2022/12/05 02:39:03;;;;;;;12.98;8.88;;;5.60;82.10;;;;;;4999093;28;20527;-64
2022/12/05 02:41:33;;;;;;;15.27;8.73;;;5.60;82.20;;;;;;4998253;28;20100;-63
2022/12/05 02:44:06;;;;;;;11.15;7.75;;;5.60;82.40;;;;;;4999279;28;20034;-64
2022/12/05 02:46:36;;;;;;;16.30;9.00;;;5.70;82.40;;;;;;4995840;28;20054;-63
2022/12/05 02:49:07;;;;;;;13.48;6.25;;;5.70;82.40;;;;;;4987909;28;20018;-63
2022/12/05 02:51:42;;;;;;;11.02;7.57;;;5.70;82.20;;;;;;4989338;28;20034;-64
2022/12/05 02:54:12;;;;;;;12.45;7.72;;;5.70;82.20;;;;;;5000490;28;20058;-64
2022/12/05 02:56:42;;;;;;;12.30;6.95;;;5.70;82.10;;;;;;4990064;28;20038;-63
2022/12/05 02:59:08;;;;;;;12.30;6.40;;;5.80;82.20;;;;;;4992717;28;20022;-63
2022/12/05 03:01:34;;;;;;;11.05;7.95;;;5.70;82.10;;;;;;5002691;28;20093;-63
2022/12/05 03:04:02;;;;;;;10.13;6.65;;;5.80;82.30;;;;;;5004062;28;20022;-63
2022/12/05 03:06:33;;;;;;;17.05;8.15;;;5.80;82.30;;;;;;5003734;28;20081;-64
2022/12/05 03:09:33;;;;;;;9.07;7.05;;;5.80;82.20;;;;;;4985912;28;20034;-63
2022/12/05 03:12:05;;;;;;;13.05;7.75;;;5.80;82.20;;;;;;4991553;28;20054;-63
2022/12/05 03:14:37;;;;;;;11.70;7.63;;;5.80;82.40;;;;;;5002566;28;20085;-63
2022/12/05 03:17:09;;;;;;;12.63;8.32;;;5.80;82.30;;;;;;4987550;28;20062;-63
2022/12/05 03:20:11;;;;;;;10.90;8.02;;;5.80;82.30;;;;;;4999768;28;20041;-60
2022/12/05 03:22:48;;;;;;;10.82;6.82;;;5.80;82.30;;;;;;4986102;28;20041;-60
2022/12/05 03:25:14;;;;;;;12.32;8.23;;;5.80;82.40;;;;;;4998706;28;20025;-59
2022/12/05 03:28:17;;;;;;;10.93;6.13;;;5.80;82.40;;;;;;4991685;28;20022;-60
2022/12/05 03:30:47;;;;;;;13.75;7.95;;;5.80;82.30;;;;;;4992833;28;20018;-59
2022/12/05 03:33:44;;;;;;;10.60;6.22;;;5.90;82.40;;;;;;4995667;28;20481;-60
2022/12/05 03:36:17;;;;;;;12.38;7.38;;;5.90;82.20;;;;;;4982716;28;20367;-60
2022/12/05 03:38:55;;;;;;;12.38;6.97;;;5.90;82.30;;;;;;5000085;28;20032;-60
2022/12/05 03:41:48;;;;;;;12.13;8.15;;;5.90;82.30;;;;;;4991863;28;20053;-60
2022/12/05 03:44:17;;;;;;;10.93;7.00;;;5.90;82.30;;;;;;4992982;28;20034;-59
2022/12/05 03:46:47;;;;;;;13.07;8.23;;;5.90;82.30;;;;;;4992546;28;20019;-59
2022/12/05 03:49:28;;;;;;;8.88;6.30;;;5.90;82.30;;;;;;4991035;28;20073;-59
2022/12/05 03:52:26;;;;;;;11.57;7.75;;;6.00;82.30;;;;;;4993581;28;20469;-59
2022/12/05 03:55:00;;;;;;;11.27;6.50;;;6.00;82.30;;;;;;4998658;28;20061;-60
2022/12/05 03:57:55;;;;;;;13.98;7.40;;;5.90;82.90;;;;;;4996541;28;20397;-60
2022/12/05 04:00:23;;;;;;;9.60;6.57;;;6.00;82.40;;;;;;4989676;28;20158;-59
2022/12/05 04:02:59;;;;;;;10.55;6.82;;;5.90;82.40;;;;;;4997807;28;20048;-60
2022/12/05 04:05:40;;;;;;;11.38;7.15;;;5.90;82.40;;;;;;4990635;28;20101;-59
2022/12/05 04:08:28;;;;;;;11.13;6.40;;;6.00;82.30;;;;;;4997357;28;20029;-60
2022/12/05 04:11:05;;;;;;;7.80;5.05;;;6.00;82.50;;;;;;5002238;28;20022;-63
2022/12/05 04:13:43;;;;;;;9.90;6.03;;;6.00;82.50;;;;;;4993241;28;20097;-63
2022/12/05 04:22:36;;;;;;;;;;;6.00;82.50;;;;;;4991397;28;20041;-64
2022/12/05 04:28:09;;;;;;;9.48;6.18;;;5.90;82.60;;;;;;4988197;28;20061;-60
2022/12/05 04:30:47;;;;;;;10.25;6.63;;;5.90;82.50;;;;;;4990310;28;20093;-60
2022/12/05 04:33:45;;;;;;;10.45;6.70;;;5.90;82.50;;;;;;4991109;28;20069;-60
2022/12/05 04:36:16;;;;;;;7.72;6.50;;;6.00;82.50;;;;;;4992532;28;20042;-64
2022/12/05 04:38:54;;;;;;;12.73;6.28;;;6.00;82.60;;;;;;4991130;28;20401;-60
2022/12/05 04:41:25;;;;;;;7.82;5.53;;;6.00;82.50;;;;;;4994783;28;20409;-60
2022/12/05 04:43:54;;;;;;;8.63;4.43;;;6.00;82.50;;;;;;4978810;28;20050;-59
2022/12/05 04:46:23;;;;;;;13.05;5.32;;;6.00;82.50;;;;;;4988542;28;20060;-59
2022/12/05 04:48:54;;;;;;;14.10;6.45;;;6.00;82.50;;;;;;4999392;28;20671;-60
2022/12/05 04:51:26;;;;;;;10.90;6.43;;;6.00;82.50;;;;;;4993178;28;20121;-60
2022/12/05 04:53:59;;;;;;;12.27;6.95;;;6.10;82.60;;;;;;4982697;28;20033;-59
2022/12/05 04:56:28;;;;;;;9.38;6.00;;;6.10;82.60;;;;;;4994409;28;20022;-60
2022/12/05 04:58:55;;;;;;;10.23;5.85;;;6.10;82.60;;;;;;4989685;28;20077;-59
2022/12/05 05:01:29;;;;;;;11.55;7.47;;;6.10;82.70;;;;;;4992244;28;20037;-60
2022/12/05 05:04:13;;;;;;;8.10;5.63;;;6.00;82.70;;;;;;4992821;28;20026;-60
2022/12/05 05:06:40;;;;;;;10.68;6.15;;;6.10;82.70;;;;;;4990596;28;20122;-59
2022/12/05 05:09:06;;;;;;;10.35;6.10;;;6.00;82.70;;;;;;4990389;28;20034;-59
2022/12/05 05:11:34;;;;;;;11.93;7.15;;;6.00;82.80;;;;;;4990082;28;20489;-60
2022/12/05 05:14:00;;;;;;;7.40;6.10;;;6.10;82.80;;;;;;4996923;28;20034;-60
2022/12/05 05:16:35;;;;;;;9.50;6.10;;;6.10;82.80;;;;;;4986405;28;20026;-60
2022/12/05 05:19:01;;;;;;;12.27;7.00;;;6.10;82.80;;;;;;4991475;28;20034;-60
2022/12/05 05:21:37;;;;;;;8.52;5.95;;;6.10;82.80;;;;;;4988621;28;20133;-59
2022/12/05 05:24:04;;;;;;;7.90;5.78;;;6.10;82.80;;;;;;4987794;28;20023;-60
2022/12/05 05:26:32;;;;;;;12.15;6.40;;;6.10;82.90;;;;;;4988854;28;20254;-60
2022/12/05 05:28:58;;;;;;;8.43;6.07;;;6.10;82.80;;;;;;4991943;28;20100;-63
2022/12/05 05:31:24;;;;;;;7.40;5.05;;;6.20;82.80;;;;;;4996379;28;20030;-67
2022/12/05 05:33:51;;;;;;;7.00;5.03;;;6.20;82.70;;;;;;4987864;28;20035;-66
2022/12/05 05:36:17;;;;;;;10.88;5.82;;;6.20;82.80;;;;;;4987282;28;20071;-63
2022/12/05 05:38:46;;;;;;;12.30;6.78;;;6.20;82.80;;;;;;4990017;28;20023;-63
2022/12/05 05:41:15;;;;;;;9.45;5.55;;;6.20;82.90;;;;;;5021293;28;20030;-63
2022/12/05 05:43:41;;;;;;;8.02;4.90;;;6.20;82.90;;;;;;4987288;28;20070;-63
2022/12/05 05:46:07;;;;;;;8.75;6.30;;;6.20;83.00;;;;;;4989486;28;20390;-63
2022/12/05 05:48:33;;;;;;;6.82;4.30;;;6.20;82.90;;;;;;4992201;28;20057;-63
2022/12/05 05:51:01;;;;;;;7.82;4.70;;;6.20;82.90;;;;;;4986131;28;20062;-63
2022/12/05 05:53:27;;;;;;;7.63;4.85;;;6.20;82.80;;;;;;4992917;28;20199;-63
2022/12/05 05:55:53;;;;;;;9.15;5.35;;;6.20;82.80;;;;;;4992370;28;20038;-63
2022/12/05 05:58:18;;;;;;;7.10;4.65;;;6.20;82.90;;;;;;5022142;28;20080;-63
2022/12/05 06:00:44;;;;;;;10.35;5.88;;;6.20;82.90;;;;;;4994543;28;20062;-63
2022/12/05 06:03:10;;;;;;;7.82;4.43;;;6.20;83.00;;;;;;4994669;28;20029;-63
2022/12/05 06:05:36;;;;;;;8.43;5.38;;;6.20;83.00;;;;;;4997387;28;20030;-63
2022/12/05 06:08:02;;;;;;;12.30;6.25;;;6.30;83.00;;;;;;4994514;28;20041;-63
2022/12/05 06:10:29;;;;;;;7.03;5.15;;;6.30;83.00;;;;;;5009025;28;20026;-60
2022/12/05 06:12:55;;;;;;;7.80;4.90;;;6.30;82.90;;;;;;4994165;28;20029;-59
2022/12/05 06:15:21;;;;;;;7.30;4.55;;;6.30;82.90;;;;;;4989235;28;20050;-60
2022/12/05 06:17:47;;;;;;;8.18;4.60;;;6.30;82.90;;;;;;4987536;28;20030;-59
2022/12/05 06:20:12;;;;;;;6.55;4.95;;;6.30;83.00;;;;;;5021037;28;20042;-60
2022/12/05 06:22:38;;;;;;;8.85;5.18;;;6.30;83.00;;;;;;4985240;28;20114;-60
2022/12/05 06:25:05;;;;;;;9.23;5.35;;;6.30;83.10;;;;;;4993676;28;20034;-60
2022/12/05 06:27:31;;;;;;;10.32;6.65;;;6.30;83.10;;;;;;4985929;28;20494;-60
2022/12/05 06:29:57;;;;;;;8.75;5.00;;;6.20;83.30;;;;;;5000088;28;20112;-60
2022/12/05 06:32:24;;;;;;;12.68;6.93;;;6.20;83.30;;;;;;5004338;28;20156;-60
2022/12/05 06:34:50;;;;;;;10.93;6.53;;;6.20;83.30;;;;;;4993571;28;20468;-59
2022/12/05 06:37:16;;;;;;;10.00;5.78;;;6.20;83.40;;;;;;4995961;28;20026;-60
2022/12/05 06:39:41;;;;;;;12.35;6.38;;;6.20;83.40;;;;;;4992003;28;20037;-59
2022/12/05 06:42:07;;;;;;;8.00;5.78;;;6.20;83.40;;;;;;4989182;28;20081;-60
2022/12/05 06:44:33;;;;;;;10.25;5.93;;;6.20;83.40;;;;;;4995597;28;20045;-60
2022/12/05 06:46:58;;;;;;;8.75;4.55;;;6.20;83.50;;;;;;4991750;28;20062;-59
2022/12/05 06:49:25;;;;;;;7.13;4.30;;;6.30;83.50;;;;;;5023613;28;20034;-60
2022/12/05 06:51:54;;;;;;;7.32;5.03;;;6.30;83.40;;;;;;4994909;28;20117;-59
2022/12/05 06:54:20;;;;;;;8.20;5.20;;;6.30;83.40;;;;;;4991811;28;20062;-60
2022/12/05 06:56:45;;;;;;;10.10;4.95;;;6.30;83.30;;;;;;4997893;28;20034;-60
2022/12/05 06:59:11;;;;;;;5.40;3.22;;;6.40;83.40;;;;;;4988554;28;20501;-60
2022/12/05 07:01:40;;;;;;;7.88;4.50;;;6.30;83.30;;;;;;4988634;28;20034;-59
2022/12/05 07:04:11;;;;;;;7.75;5.30;;;6.30;83.20;;;;;;4991714;28;20073;-60
2022/12/05 07:06:37;;;;;;;9.10;5.38;;;6.40;83.30;;;;;;4998066;28;20580;-59
2022/12/05 07:09:03;;;;;;;7.05;4.63;;;6.40;83.30;;;;;;4993816;28;20477;-60
2022/12/05 07:11:29;;;;;;;9.82;6.85;;;6.40;83.30;;;;;;4991116;28;20037;-60
2022/12/05 07:13:55;;;;;;;6.28;4.10;;;6.30;83.20;;;;;;4993092;28;20027;-60
2022/12/05 07:16:21;;;;;;;6.40;4.43;;;6.40;83.40;;;;;;5001685;28;20125;-59
2022/12/05 07:18:47;;;;;;;5.32;3.53;;;6.40;83.30;;;;;;4992243;28;20022;-60
2022/12/05 07:21:15;;;;;;;6.63;4.93;;;6.40;83.30;;;;;;5001021;28;20088;-60
2022/12/05 07:23:42;;;;;;;7.10;4.57;;;6.40;83.30;;;;;;4990193;28;20034;-60
2022/12/05 07:26:10;;;;;;;7.93;5.03;;;6.40;83.30;;;;;;4998649;28;20030;-60
2022/12/05 07:28:36;;;;;;;9.43;5.15;;;6.40;83.30;;;;;;4991116;28;20015;-60
2022/12/05 07:31:04;;;;;;;7.57;4.85;;;6.40;83.20;;;;;;5002910;28;20041;-60
2022/12/05 07:33:30;;;;;;;6.25;4.78;;;6.50;83.30;;;;;;4990622;28;20023;-60
2022/12/05 07:36:08;;;;;;;8.40;4.38;;;6.50;83.20;;;;;;5020731;28;20034;-60
2022/12/05 07:38:33;;;;;;;10.00;5.03;;;6.50;83.20;;;;;;4992320;28;20030;-60
2022/12/05 07:41:03;;;;;;;6.95;4.18;;;6.50;83.20;;;;;;4998556;28;20500;-60
2022/12/05 07:43:29;;;;;;;8.48;4.97;;;6.50;83.30;;;;;;4990817;28;20482;-60
2022/12/05 07:45:55;;;;;;;5.15;4.13;;;6.50;83.40;;;;;;5005778;28;20034;-60
2022/12/05 07:48:21;;;;;;;9.70;5.28;;;6.50;83.30;;;;;;4994108;28;20434;-60
2022/12/05 07:50:46;;;;;;;6.47;5.00;;;6.50;83.30;;;;;;4993121;28;20030;-60
2022/12/05 07:53:12;;;;;;;5.93;4.22;;;6.50;83.40;;;;;;4991948;28;20044;-59
2022/12/05 07:55:38;;;;;;;6.07;3.72;;;6.50;83.30;;;;;;4994708;28;20030;-59
2022/12/05 07:58:04;;;;;;;6.65;4.07;;;6.50;83.30;;;;;;4991406;28;20486;-60
2022/12/05 08:00:29;;;;;;;6.25;3.97;;;6.50;83.30;;;;;;4990412;28;20023;-59
2022/12/05 08:02:55;;;;;;;6.88;4.93;;;6.50;83.30;;;;;;4990266;28;20398;-59
2022/12/05 08:05:21;;;;;;;8.30;4.97;;;6.50;83.30;;;;;;4991811;28;20116;-60
2022/12/05 08:07:46;;;;;;;8.05;4.25;;;6.50;83.40;;;;;;4990628;28;20084;-60
2022/12/05 08:10:12;;;;;;;5.78;4.28;;;6.50;83.40;;;;;;4990961;28;20409;-59
2022/12/05 08:12:38;;;;;;;7.82;4.55;;;6.50;83.40;;;;;;4991184;28;20124;-60
2022/12/05 08:15:05;;;;;;;6.75;4.53;;;6.50;83.30;;;;;;4991587;28;20097;-63
2022/12/05 08:17:32;;;;;;;5.25;3.40;;;6.50;83.30;;;;;;5021183;28;20030;-63
2022/12/05 08:19:58;;;;;;;5.30;3.58;;;6.50;83.30;;;;;;4991155;28;20038;-63
2022/12/05 08:22:23;;;;;;;7.85;4.53;;;6.60;83.40;;;;;;4990658;28;20061;-63
2022/12/05 08:24:49;;;;;;;9.18;5.90;;;6.50;83.40;;;;;;4990747;28;20092;-65
2022/12/05 08:27:15;;;;;;;5.63;4.45;;;6.60;83.40;;;;;;4988112;28;20019;-65
2022/12/05 08:29:41;;;;;;;6.43;4.78;;;6.50;83.40;;;;;;5001532;28;20030;-61
2022/12/05 08:32:06;;;;;;;8.57;5.82;;;6.60;83.50;;;;;;4993435;28;20034;-60
2022/12/05 08:34:32;;;;;;;7.60;5.20;;;6.60;83.40;;;;;;4996083;28;20758;-68
2022/12/05 08:36:58;;;;;;;7.53;3.50;;;6.60;83.40;;;;;;4990276;28;20084;-67
2022/12/05 08:39:23;;;;;;;6.63;5.00;;;6.60;83.40;;;;;;4991902;28;20034;-69
2022/12/05 08:41:49;;;;;;;9.63;4.72;;;6.60;83.40;;;;;;4990114;28;20035;-69
2022/12/05 08:44:15;;;;;;;8.40;5.20;;;6.70;83.40;;;;;;4993734;28;20078;-67
2022/12/05 08:46:43;;;;;;;8.48;5.68;;;6.60;83.40;;;;;;4982821;28;20034;-68
2022/12/05 08:49:10;;;;;;;6.75;4.57;;;6.70;83.40;;;;;;4987999;28;20053;-68
2022/12/05 08:51:36;;;;;;;5.55;5.00;;;6.70;83.40;;;;;;4988619;28;20022;-66
2022/12/05 08:54:03;;;;;;;7.85;6.20;;;6.70;83.40;;;;;;4993034;28;20042;-64
2022/12/05 08:56:29;;;;;;;4.68;4.05;;;6.70;83.40;;;;;;4992182;28;20336;-66
2022/12/05 08:58:55;;;;;;;8.43;5.45;;;6.70;83.30;;;;;;4982517;28;20030;-67
2022/12/05 09:01:21;;;;;;;10.23;6.50;;;6.70;83.30;;;;;;4991401;28;20053;-66
2022/12/05 09:03:48;;;;;;;8.75;5.85;;;6.80;83.40;;;;;;4989287;28;20019;-68
2022/12/05 09:06:16;;;;;;;10.15;5.63;;;6.80;83.40;;;;;;4989634;28;20019;-68
2022/12/05 09:08:42;;;;;;;7.40;5.57;;;6.70;83.30;;;;;;4989612;28;20089;-67
2022/12/05 09:11:10;;;;;;;8.40;5.05;;;6.80;83.40;;;;;;4989940;28;20030;-65
2022/12/05 09:13:36;;;;;;;6.78;6.00;;;6.80;83.50;;;;;;4990725;28;20465;-64
2022/12/05 09:16:14;;;;;;;8.23;4.72;;;6.70;83.50;;;;;;4990201;28;20496;-67
2022/12/05 09:18:40;;;;;;;11.75;6.57;;;6.70;83.50;;;;;;4988914;28;20062;-66
2022/12/05 09:21:08;;;;;;;8.73;5.35;;;6.70;83.60;;;;;;4990488;28;20034;-66
2022/12/05 09:23:35;;;;;;;9.57;5.93;;;6.70;83.50;;;;;;4990150;28;20081;-63
2022/12/05 09:26:01;;;;;;;10.35;5.57;;;6.80;83.60;;;;;;4986725;28;20396;-64
2022/12/05 09:28:28;;;;;;;7.93;5.72;;;6.70;83.50;;;;;;5021436;28;20077;-64
2022/12/05 09:31:03;;;;;;;6.07;4.97;;;6.80;83.50;;;;;;4978078;28;20114;-67
2022/12/05 09:33:30;;;;;;;6.55;5.00;;;6.80;83.50;;;;;;4986536;28;20038;-64
2022/12/05 09:35:56;;;;;;;6.60;4.53;;;6.80;84.00;;;;;;4999985;28;20072;-64
2022/12/05 09:38:23;;;;;;;12.25;5.70;;;6.80;84.00;;;;;;4992291;28;20053;-64
2022/12/05 09:41:14;;;;;;;7.68;5.28;;;6.80;83.40;;;;;;5000574;28;20401;-62
2022/12/05 09:43:56;;;;;;;8.25;5.55;;;6.90;83.40;;;;;;4966862;28;20050;-65
2022/12/05 09:46:46;;;;;;;12.45;6.30;;;6.80;83.60;;;;;;4992550;28;20049;-62
2022/12/05 09:49:12;;;;;;;5.63;3.90;;;6.80;83.50;;;;;;4989438;28;20022;-61
2022/12/05 09:51:43;;;;;;;10.80;6.38;;;6.80;83.60;;;;;;4985154;28;20034;-66
2022/12/05 09:54:11;;;;;;;10.68;6.63;;;6.90;83.60;;;;;;4991450;28;20037;-62
2022/12/05 09:56:38;;;;;;;10.15;6.30;;;6.90;83.60;;;;;;4985466;28;20450;-62
2022/12/05 09:59:04;;;;;;;10.63;5.57;;;6.90;83.60;;;;;;4994098;28;20029;-62
2022/12/05 10:01:42;;;;;;;10.48;6.15;;;6.90;83.50;;;;;;4992761;28;20084;-62
2022/12/05 10:04:45;;;;;;;11.25;5.72;;;7.00;83.50;;;;;;4995579;28;20034;-62
2022/12/05 10:07:29;;;;;;;;;;;7.00;83.40;;;;;;4993205;28;20023;-60
2022/12/05 10:10:43;;;;;;;8.45;5.22;;;6.90;83.40;;;;;;4987139;28;20207;-60
2022/12/05 10:13:46;;;;;;;9.25;5.32;;;6.90;83.40;;;;;;4971334;28;20062;-60
2022/12/05 10:16:22;;;;;;;8.38;6.18;;;7.00;83.40;;;;;;4959291;28;20721;-60
2022/12/05 10:19:02;;;;;;;8.07;5.20;;;7.00;83.50;;;;;;4990861;28;20042;-60
2022/12/05 10:21:35;;;;;;;10.35;5.93;;;7.00;83.40;;;;;;4992137;28;20902;-60
2022/12/05 10:24:14;;;;;;;12.68;6.38;;;7.00;83.40;;;;;;4994172;28;20072;-60
2022/12/05 10:26:54;;;;;;;6.47;5.40;;;7.10;83.40;;;;;;4993336;28;20025;-60
2022/12/05 10:29:34;;;;;;;7.65;5.57;;;7.10;83.40;;;;;;5015787;28;20033;-60
2022/12/05 10:32:16;;;;;;;9.80;6.13;;;7.10;83.40;;;;;;4993539;28;20477;-60
2022/12/05 10:34:44;;;;;;;7.55;5.55;;;7.10;83.40;;;;;;5000790;28;20052;-60
2022/12/05 10:37:13;;;;;;;10.98;6.47;;;7.10;83.40;;;;;;4992600;28;20103;-60
2022/12/05 10:39:39;;;;;;;9.63;6.22;;;7.10;83.40;;;;;;4992365;28;20137;-60
2022/12/05 10:42:06;;;;;;;9.75;5.88;;;7.10;83.40;;;;;;4992882;28;20038;-60
2022/12/05 10:44:33;;;;;;;8.85;5.47;;;7.20;83.50;;;;;;4996314;28;20049;-60
2022/12/05 10:47:00;;;;;;;7.10;5.18;;;7.20;83.50;;;;;;4987623;28;20497;-60
2022/12/05 10:49:26;;;;;;;9.43;6.00;;;7.10;83.50;;;;;;4994437;28;20045;-60
2022/12/05 10:51:52;;;;;;;8.65;6.25;;;7.20;83.50;;;;;;5001330;28;20055;-60
2022/12/05 10:54:24;;;;;;;12.82;5.80;;;7.20;83.50;;;;;;5005449;28;20074;-66
2022/12/05 10:56:52;;;;;;;8.93;5.70;;;7.20;83.50;;;;;;4995909;28;20030;-59
2022/12/05 10:59:43;;;;;;;8.45;4.82;;;7.20;83.50;;;;;;4993981;28;20060;-58
2022/12/05 11:02:22;;;;;;;9.25;5.60;;;7.30;83.50;;;;;;5005599;28;20036;-59
2022/12/05 11:04:49;;;;;;;10.85;5.57;;;7.20;83.40;;;;;;5001439;28;20049;-58
2022/12/05 11:07:41;;;;;;;9.02;5.38;;;7.30;83.50;;;;;;5003124;28;20168;-58
2022/12/05 11:10:21;;;;;;;9.73;5.70;;;7.30;83.40;;;;;;5000654;28;20057;-58
2022/12/05 11:12:47;;;;;;;9.50;5.65;;;7.30;83.50;;;;;;5001164;28;20058;-58
2022/12/05 11:15:20;;;;;;;6.45;5.38;;;7.30;83.50;;;;;;5024349;28;20030;-58
2022/12/05 11:17:47;;;;;;;9.40;5.05;;;7.30;83.40;;;;;;4998888;28;20469;-58
2022/12/05 11:20:19;;;;;;;8.38;4.78;;;7.30;83.40;;;;;;4994829;28;20089;-58
2022/12/05 11:22:46;;;;;;;6.37;4.53;;;7.40;83.50;;;;;;4993029;28;20034;-58
2022/12/05 11:25:32;;;;;;;7.85;4.43;;;7.40;83.50;;;;;;4992995;28;20045;-58
2022/12/05 11:28:00;;;;;;;11.30;5.80;;;7.40;83.40;;;;;;4996854;28;20014;-58
2022/12/05 11:30:28;;;;;;;4.20;3.80;;;7.40;83.40;;;;;;4997779;28;20026;-58
2022/12/05 11:33:22;;;;;;;8.52;5.05;;;7.50;83.50;;;;;;4991690;28;20038;-58
2022/12/05 11:35:51;;;;;;;10.32;5.68;;;7.50;83.30;;;;;;4997204;28;20109;-58
2022/12/05 11:38:20;;;;;;;7.93;4.25;;;7.50;83.40;;;;;;4990564;28;20030;-58
2022/12/05 11:41:12;;;;;;;9.57;5.10;;;7.50;83.40;;;;;;4990137;28;20085;-59
2022/12/05 11:43:51;;;;;;;5.45;4.07;;;7.50;83.40;;;;;;4990080;28;20457;-59
2022/12/05 11:47:03;;;;;;;7.15;4.43;;;7.50;83.40;;;;;;4990531;28;20161;-59
2022/12/05 11:50:27;;;;;;;5.97;4.30;;;7.50;83.30;;;;;;4988648;28;20030;-59
2022/12/05 11:53:30;;;;;;;4.20;3.80;;;7.50;84.10;;;;;;4962973;28;20035;-59
2022/12/05 11:55:55;;;;;;;;;;;7.40;83.50;;;;;;4993994;28;20039;-59
2022/12/05 11:58:30;;;;;;;5.78;4.38;;;7.40;83.60;;;;;;4993868;28;19921;-58
2022/12/05 12:01:04;;;;;;;7.00;5.57;;;7.40;83.70;;;;;;4984998;28;20045;-58
2022/12/05 12:03:49;;;;;;;7.72;5.28;;;7.40;83.70;;;;;;4991748;28;20041;-58
2022/12/05 12:06:54;;;;;;;7.63;3.95;;;7.40;83.70;;;;;;4990830;28;20026;-59
2022/12/05 12:09:43;;;;;;;5.03;3.55;;;7.50;83.60;;;;;;4988923;28;20101;-58
2022/12/05 12:12:41;;;;;;;5.10;3.50;;;7.40;83.70;;;;;;4990055;28;20042;-59
2022/12/05 12:15:22;;;;;;;6.15;3.92;;;7.50;83.60;;;;;;4983749;28;20226;-58
2022/12/05 12:18:20;;;;;;;4.28;3.42;;;7.50;83.70;;;;;;4989822;28;20038;-64
2022/12/05 12:20:49;;;;;;;7.55;3.85;;;7.50;83.70;;;;;;4974921;28;20046;-64
2022/12/05 12:23:54;;;;;;;8.50;3.65;;;7.40;83.70;;;;;;4989178;28;20034;-64
2022/12/05 12:26:34;;;;;;;4.45;3.38;;;7.40;83.60;;;;;;4990860;28;20026;-63
2022/12/05 12:29:18;;;;;;;4.60;4.03;;;7.40;83.80;;;;;;4989893;28;20392;-62
2022/12/05 12:32:17;;;;;;;6.05;3.28;;;7.40;83.90;;;;;;4989897;28;20030;-63
2022/12/05 12:35:15;;;;;;;3.67;2.85;;;7.40;83.80;;;;;;4982335;28;20110;-64
2022/12/05 12:38:02;;;;;;;4.93;3.35;;;7.50;83.80;;;;;;4990551;28;20078;-64
2022/12/05 12:40:33;;;;;;;4.38;3.47;;;7.50;83.70;;;;;;4988310;28;20031;-64
2022/12/05 12:43:28;;;;;;;3.47;2.47;;;7.50;83.60;;;;;;4989955;28;20054;-63
2022/12/05 12:46:10;;;;;;;5.28;3.28;;;7.50;83.60;;;;;;4973536;28;20034;-63
2022/12/05 12:49:00;;;;;;;3.00;2.30;;;7.50;83.70;;;;;;4990239;28;20029;-64
2022/12/05 12:51:30;;;;;;;5.70;3.03;;;7.50;83.60;;;;;;4987039;28;20110;-64
2022/12/05 12:54:05;;;;;;;4.38;3.42;;;7.50;83.80;;;;;;5005557;28;20022;-63
2022/12/05 12:56:55;;;;;;;3.55;2.47;;;7.50;83.90;;;;;;4988529;28;20022;-64
2022/12/05 12:59:20;;;;;;;5.55;3.15;;;7.50;83.90;;;;;;4993130;28;20126;-59
2022/12/05 13:02:01;;;;;;;6.57;2.72;;;7.50;83.90;;;;;;4992696;28;20137;-59
2022/12/05 13:04:33;;;;;;;4.40;2.85;;;7.50;84.00;;;;;;4989243;28;20015;-59
2022/12/05 13:07:14;;;;;;;2.53;1.93;;;7.40;83.90;;;;;;4989873;28;20536;-58
2022/12/05 13:09:44;;;;;;;2.90;2.30;;;7.50;83.90;;;;;;4992947;28;20117;-59
2022/12/05 13:12:14;;;;;;;2.58;2.13;;;7.50;83.90;;;;;;4989402;28;20172;-58
2022/12/05 13:14:58;;;;;;;2.70;2.13;;;7.50;83.80;;;;;;4990824;28;20026;-58
2022/12/05 13:17:25;;;;;;;2.42;1.60;;;7.50;83.90;;;;;;4989386;28;20520;-58
2022/12/05 13:19:52;;;;;;;3.08;2.13;;;7.50;83.90;;;;;;4990434;28;20085;-59
2022/12/05 13:22:21;;;;;;;2.60;1.77;;;7.50;83.80;;;;;;4995248;28;20390;-59
2022/12/05 13:24:49;;;;;;;4.43;2.08;;;7.60;83.90;;;;;;4991276;28;20026;-59
2022/12/05 13:27:18;;;;;;;4.43;2.22;;;7.50;83.80;;;;;;4989894;28;20030;-59
2022/12/05 13:29:55;;;;;;;2.72;2.30;;;7.50;83.80;;;;;;5005145;28;20033;-59